Time;durP1;ratioP1;P1;durP2;ratioP2;P2;SDS_P1;SDS_P2;PMS_P1;PMS_P2;Temp;Humidity;BMP_temperature;BMP_pressure;BME280_temperature;BME280_humidity;BME280_pressure;Samples;Min_cycle;Max_cycle;Signal;HPM_P1;HPM_P2
2022/07/15 09:38:24;;;;;;;4.32;1.65;;;;;;;23.91;61.84;99688.19;4380447;32;33216;-81
2022/07/15 09:40:54;;;;;;;4.53;2.22;;;;;;;24.03;61.88;99688.19;4374710;32;34027;-81
2022/07/15 09:43:46;;;;;;;5.03;1.90;;;;;;;24.18;62.26;99690.72;4378515;32;33521;-79
2022/07/15 09:46:15;;;;;;;3.62;1.77;;;;;;;24.50;59.61;99691.16;4371985;32;32811;-81
2022/07/15 09:48:47;;;;;;;7.40;2.20;;;;;;;24.30;60.62;99696.97;4377400;32;34212;-81
2022/07/15 09:51:18;;;;;;;2.87;1.75;;;;;;;24.27;59.38;99698.03;4379974;32;35221;-81
2022/07/15 09:53:47;;;;;;;4.68;2.95;;;;;;;24.43;60.05;99692.53;4373991;32;33860;-81
2022/07/15 09:56:21;;;;;;;4.60;2.17;;;;;;;24.19;59.71;99701.25;4372779;32;34732;-82
2022/07/15 09:58:52;;;;;;;3.85;1.90;;;;;;;24.28;58.84;99691.78;4372484;32;33575;-81
2022/07/15 10:01:21;;;;;;;3.00;1.55;;;;;;;24.48;57.73;99677.16;4371970;32;34615;-81
2022/07/15 10:03:50;;;;;;;5.87;2.03;;;;;;;24.44;55.20;99665.87;4378240;32;34319;-81
2022/07/15 10:06:21;;;;;;;3.33;1.70;;;;;;;24.18;56.20;99649.16;4374560;32;33201;-80
2022/07/15 10:08:52;;;;;;;3.28;1.62;;;;;;;24.20;55.93;99620.75;4383674;32;34251;-81
2022/07/15 10:11:21;;;;;;;3.17;1.45;;;;;;;24.33;54.22;99594.22;4382701;32;34564;-82
2022/07/15 10:14:16;;;;;;;6.20;1.60;;;;;;;24.49;53.59;99596.63;4374927;32;34004;-81
2022/07/15 10:17:28;;;;;;;4.37;1.48;;;;;;;24.60;54.02;99620.59;4372175;32;34591;-81
2022/07/15 10:20:32;;;;;;;3.03;1.50;;;;;;;24.65;55.78;99639.66;4372897;32;35642;-80
2022/07/15 10:23:12;;;;;;;3.37;1.73;;;;;;;24.43;56.63;99636.84;4373457;32;34069;-80
2022/07/15 10:25:59;;;;;;;2.72;1.70;;;;;;;24.56;56.85;99626.22;4375011;32;33633;-82
2022/07/15 10:28:44;;;;;;;4.07;2.40;;;;;;;24.48;56.31;99610.88;4381127;32;33940;-81
2022/07/15 10:31:18;;;;;;;2.50;1.70;;;;;;;24.22;57.61;99594.97;4379382;32;33662;-81
2022/07/15 10:36:58;;;;;;;3.37;1.42;;;;;;;25.06;52.61;99584.50;4382921;32;34038;-81
2022/07/15 10:39:49;;;;;;;1.52;1.20;;;;;;;25.13;49.87;99589.22;4388127;32;33956;-81
2022/07/15 10:42:19;;;;;;;2.87;1.20;;;;;;;25.24;46.40;99600.88;4380733;32;33789;-81
2022/07/15 10:45:11;;;;;;;3.37;1.37;;;;;;;24.82;44.47;99609.25;4386240;32;33603;-82
2022/07/15 10:47:40;;;;;;;2.40;1.17;;;;;;;24.99;41.33;99617.78;4388008;32;33984;-83
2022/07/15 10:50:37;;;;;;;2.08;1.08;;;;;;;25.29;41.36;99630.56;4378554;32;34621;-83
2022/07/15 10:53:18;;;;;;;1.58;0.90;;;;;;;25.31;39.29;99626.84;4378823;32;32066;-83
2022/07/15 10:55:48;;;;;;;2.27;1.00;;;;;;;25.37;36.88;99632.66;4380080;32;33928;-81
2022/07/15 10:58:21;;;;;;;3.60;0.90;;;;;;;25.62;37.57;99631.66;4371914;32;32921;-82
2022/07/15 11:00:50;;;;;;;2.22;0.90;;;;;;;25.80;37.73;99637.34;4377759;32;33965;-82
2022/07/15 11:03:22;;;;;;;2.40;0.80;;;;;;;26.03;34.45;99617.81;4377331;32;33815;-81
2022/07/15 11:06:05;;;;;;;1.02;0.70;;;;;;;26.00;32.99;99620.75;4380934;32;34347;-81
2022/07/15 11:08:55;;;;;;;1.40;0.90;;;;;;;25.61;33.90;99619.31;4380437;32;33910;-82
2022/07/15 11:11:53;;;;;;;0.90;0.70;;;;;;;25.71;34.81;99617.66;4381561;32;34688;-82
2022/07/15 11:14:52;;;;;;;0.70;0.60;;;;;;;25.43;32.80;99622.41;4385748;32;34306;-83
2022/07/15 11:17:42;;;;;;;1.73;0.80;;;;;;;25.42;32.41;99615.44;4377626;32;33569;-81
2022/07/15 11:20:12;;;;;;;1.73;0.85;;;;;;;25.55;32.08;99626.78;4381713;32;34554;-82
2022/07/15 11:22:49;;;;;;;1.55;1.05;;;;;;;25.35;31.47;99624.81;4371056;32;35421;-81
2022/07/15 11:25:26;;;;;;;2.05;0.85;;;;;;;25.46;32.65;99616.88;4372911;32;34323;-82
2022/07/15 11:28:07;;;;;;;1.42;0.70;;;;;;;25.80;30.21;99624.06;4374323;32;33554;-82
2022/07/15 11:30:41;;;;;;;1.58;0.77;;;;;;;25.77;30.12;99620.66;4371969;32;33526;-81
2022/07/15 11:33:16;;;;;;;1.42;0.85;;;;;;;26.17;30.27;99622.91;4374545;32;34127;-81
2022/07/15 11:35:48;;;;;;;1.75;0.90;;;;;;;26.25;30.33;99616.97;4391012;32;34305;-82
2022/07/15 11:38:17;;;;;;;1.83;0.90;;;;;;;26.36;28.77;99611.66;4377998;32;33828;-80
2022/07/15 11:46:34;;;;;;;2.20;0.95;;;;;;;27.10;28.13;99615.47;4375485;32;32585;-82
2022/07/15 11:49:06;;;;;;;1.35;0.88;;;;;;;27.10;29.11;99604.81;4374145;32;33598;-80
2022/07/15 11:51:39;;;;;;;1.33;0.80;;;;;;;27.01;28.58;99609.94;4359077;32;33979;-81
2022/07/15 11:54:14;;;;;;;2.28;1.05;;;;;;;26.73;28.54;99600.72;4389327;32;34246;-81
2022/07/15 11:56:54;;;;;;;1.45;1.05;;;;;;;26.88;27.85;99595.94;4393723;32;33635;-79
2022/07/15 11:59:25;;;;;;;1.95;0.98;;;;;;;26.38;28.24;99612.34;4378511;32;34253;-81
2022/07/15 12:02:06;;;;;;;1.60;0.73;;;;;;;26.52;28.05;99610.41;4373384;32;34434;-80
2022/07/15 12:04:35;;;;;;;;;;;;;;;26.22;28.38;99614.56;4372397;32;34189;-80
2022/07/15 12:07:07;;;;;;;1.73;1.02;;;;;;;26.34;28.97;99618.06;4372075;32;33538;-80
2022/07/15 12:09:40;;;;;;;1.20;0.80;;;;;;;26.19;29.45;99617.44;4375787;32;34510;-79
2022/07/15 12:12:12;;;;;;;1.90;1.00;;;;;;;26.34;29.89;99618.06;4357067;32;33067;-79
2022/07/15 12:14:50;;;;;;;6.72;1.33;;;;;;;26.54;28.38;99621.81;4370806;32;34973;-81
2022/07/15 12:17:19;;;;;;;1.52;0.93;;;;;;;26.80;29.00;99619.69;4373169;32;34142;-79
2022/07/15 12:19:54;;;;;;;2.17;0.93;;;;;;;26.80;26.81;99617.88;4373767;32;33548;-81
2022/07/15 12:22:23;;;;;;;5.10;0.98;;;;;;;27.02;27.69;99624.94;4374985;32;34841;-81
2022/07/15 12:24:53;;;;;;;2.72;1.15;;;;;;;27.09;26.41;99625.28;4376977;32;34132;-81
2022/07/15 12:27:33;;;;;;;1.20;0.77;;;;;;;27.17;26.67;99617.47;4376114;32;33366;-80
2022/07/15 12:30:08;;;;;;;2.15;1.00;;;;;;;27.64;26.77;99617.12;4376091;32;33952;-80
2022/07/15 12:32:38;;;;;;;2.20;0.90;;;;;;;28.30;25.54;99606.94;4378498;32;33258;-80
2022/07/15 12:35:09;;;;;;;1.80;0.73;;;;;;;28.43;23.98;99611.19;4377387;32;33792;-81
2022/07/15 12:37:49;;;;;;;1.45;0.90;;;;;;;28.54;23.91;99602.22;4377828;32;34502;-80
2022/07/15 12:40:22;;;;;;;1.50;0.83;;;;;;;28.27;24.10;99603.66;4393951;32;33829;-79
2022/07/15 12:42:53;;;;;;;1.35;0.68;;;;;;;28.62;22.98;99599.72;4385699;32;101172;-80
2022/07/15 12:45:29;;;;;;;1.17;0.88;;;;;;;28.80;23.14;99599.88;4380187;32;34699;-81
2022/07/15 12:48:07;;;;;;;2.33;0.70;;;;;;;28.58;22.69;99584.97;4374417;32;33117;-80
2022/07/15 12:50:37;;;;;;;1.62;0.77;;;;;;;28.94;22.62;99592.28;4374311;32;33736;-81
2022/07/15 12:53:12;;;;;;;2.03;1.00;;;;;;;29.38;22.33;99580.34;4373444;32;34136;-79
2022/07/15 12:55:49;;;;;;;2.40;1.10;;;;;;;29.58;21.27;99582.00;4372822;32;34967;-79
2022/07/15 12:58:30;;;;;;;1.73;0.70;;;;;;;29.47;21.28;99582.16;4393596;32;33595;-81
2022/07/15 13:01:12;;;;;;;2.40;1.30;;;;;;;29.50;21.56;99587.22;4384002;32;34633;-78
2022/07/15 13:03:41;;;;;;;2.28;0.82;;;;;;;29.38;21.02;99599.06;4381951;32;34002;-80
2022/07/15 13:06:15;;;;;;;3.37;0.80;;;;;;;29.51;20.29;99591.59;4375517;32;34124;-79
2022/07/15 13:08:44;;;;;;;1.58;0.77;;;;;;;29.46;19.63;99596.53;4378332;32;33003;-80
2022/07/15 13:11:15;;;;;;;2.25;1.05;;;;;;;29.69;20.31;99602.38;4380042;32;34081;-81
2022/07/15 13:13:44;;;;;;;2.15;0.60;;;;;;;29.72;19.48;99607.44;4378440;32;34106;-79
2022/07/15 13:16:17;;;;;;;2.15;0.85;;;;;;;29.89;19.29;99605.84;4378135;32;33930;-79
2022/07/15 13:18:46;;;;;;;2.05;0.90;;;;;;;29.83;20.49;99604.59;4386845;32;33318;-80
2022/07/15 13:21:17;;;;;;;5.70;0.82;;;;;;;30.03;20.30;99604.53;4387122;32;34013;-81
2022/07/15 13:23:50;;;;;;;2.50;0.80;;;;;;;30.29;20.15;99608.22;4380682;32;34773;-81
2022/07/15 13:26:20;;;;;;;0.75;0.55;;;;;;;30.41;19.41;99599.00;4379537;32;34863;-79
2022/07/15 13:28:49;;;;;;;1.80;0.75;;;;;;;30.58;19.18;99602.72;4373813;32;33561;-80
2022/07/15 13:31:22;;;;;;;1.62;0.68;;;;;;;30.53;19.83;99610.34;4374297;32;33870;-82
2022/07/15 13:33:52;;;;;;;2.65;1.02;;;;;;;30.57;19.27;99609.06;4373554;32;33906;-81
2022/07/15 13:36:29;;;;;;;1.37;0.77;;;;;;;30.86;19.54;99604.50;4373607;32;34273;-80
2022/07/15 13:39:07;;;;;;;1.90;0.70;;;;;;;30.62;19.97;99606.78;4373636;32;34441;-80
2022/07/15 13:41:35;;;;;;;1.40;0.73;;;;;;;30.57;18.89;99608.22;4377531;32;34590;-81
2022/07/15 13:44:05;;;;;;;2.00;0.75;;;;;;;30.50;18.75;99621.38;4379418;32;33925;-80
2022/07/15 13:46:36;;;;;;;1.43;0.67;;;;;;;30.61;19.23;99612.28;4388000;32;34129;-80
2022/07/15 13:49:08;;;;;;;1.58;0.73;;;;;;;30.75;19.60;99629.66;4389567;32;33311;-80
2022/07/15 13:51:40;;;;;;;0.95;0.60;;;;;;;30.31;19.68;99621.47;4388739;32;34696;-78
2022/07/15 13:54:17;;;;;;;1.27;0.70;;;;;;;30.12;20.26;99625.03;4388867;32;34632;-79
2022/07/15 13:56:51;;;;;;;1.83;0.68;;;;;;;30.60;20.72;99614.09;4393123;32;34158;-81
2022/07/15 13:59:26;;;;;;;1.92;0.75;;;;;;;30.75;20.49;99614.44;4388913;32;34274;-80
2022/07/15 14:01:57;;;;;;;1.35;0.70;;;;;;;30.99;19.35;99610.34;4388540;32;35153;-80
2022/07/15 14:04:26;;;;;;;1.05;0.57;;;;;;;30.86;19.21;99631.28;4388463;32;33970;-81
2022/07/15 14:06:55;;;;;;;1.50;0.65;;;;;;;30.63;19.56;99626.34;4388476;32;34368;-79
2022/07/15 14:09:24;;;;;;;1.83;0.73;;;;;;;30.40;19.46;99626.78;4392946;32;33602;-79
2022/07/15 14:11:56;;;;;;;1.62;0.80;;;;;;;30.00;19.59;99627.06;4388620;32;35593;-82
2022/07/15 14:14:28;;;;;;;6.70;0.95;;;;;;;30.18;19.06;99616.44;4388210;32;33940;-80
2022/07/15 14:17:11;;;;;;;2.12;0.70;;;;;;;29.92;19.26;99608.25;4388378;32;34160;-79
2022/07/15 14:19:46;;;;;;;0.70;0.50;;;;;;;30.43;19.18;99608.75;4388280;32;34462;-81
2022/07/15 14:22:18;;;;;;;2.42;1.08;;;;;;;30.83;19.76;99613.69;4387910;32;33857;-81
2022/07/15 14:24:53;;;;;;;2.25;1.23;;;;;;;30.39;19.95;99624.25;4389593;32;33671;-79
2022/07/15 14:27:22;;;;;;;2.12;0.77;;;;;;;30.30;20.30;99612.59;4391035;32;34239;-80
2022/07/15 14:29:51;;;;;;;1.17;0.65;;;;;;;30.31;20.20;99616.12;4380024;32;34307;-80
2022/07/15 14:32:25;;;;;;;0.98;0.60;;;;;;;30.31;19.39;99606.25;4363649;32;31928;-82
2022/07/15 14:34:56;;;;;;;1.90;0.82;;;;;;;30.03;20.18;99615.22;4384471;32;34081;-79
2022/07/15 14:37:26;;;;;;;3.78;0.82;;;;;;;29.47;20.57;99608.88;4387619;32;34200;-79
2022/07/15 14:40:04;;;;;;;1.08;0.52;;;;;;;29.20;20.51;99605.13;4376864;32;33622;-79
2022/07/15 14:42:39;;;;;;;2.10;1.12;;;;;;;29.10;21.44;99604.28;4377620;32;34734;-80
2022/07/15 14:45:29;;;;;;;1.67;0.80;;;;;;;29.42;21.05;99619.16;4381865;32;34617;-81
2022/07/15 14:48:02;;;;;;;2.35;0.52;;;;;;;29.32;20.79;99609.31;4373215;32;34069;-81
2022/07/15 14:50:34;;;;;;;1.23;0.60;;;;;;;29.42;19.82;99617.34;4358657;32;34242;-81
2022/07/15 14:53:03;;;;;;;2.17;1.08;;;;;;;29.09;20.06;99613.28;4386034;32;33323;-81
2022/07/15 14:55:35;;;;;;;1.12;0.62;;;;;;;28.84;20.16;99609.31;4382449;32;34755;-80
2022/07/15 14:58:04;;;;;;;1.52;0.50;;;;;;;28.66;21.08;99617.16;4377361;32;34946;-81
2022/07/15 15:00:34;;;;;;;1.58;0.75;;;;;;;29.11;20.87;99614.81;4375943;32;33716;-81
2022/07/15 15:03:05;;;;;;;2.72;0.80;;;;;;;29.70;20.53;99618.31;4379628;32;32797;-80
2022/07/15 15:05:39;;;;;;;0.88;0.50;;;;;;;29.45;20.83;99609.03;4373514;32;34016;-79
2022/07/15 15:08:08;;;;;;;2.17;0.55;;;;;;;29.25;20.92;99613.56;4372763;32;34153;-79
2022/07/15 15:10:40;;;;;;;3.28;1.08;;;;;;;29.34;20.65;99601.19;4385669;32;33815;-81
2022/07/15 15:13:09;;;;;;;1.33;0.70;;;;;;;29.47;20.88;99608.88;4388048;32;34285;-80
2022/07/15 15:15:41;;;;;;;1.23;0.73;;;;;;;29.30;21.15;99595.25;4387772;32;34162;-78
2022/07/15 15:18:11;;;;;;;1.77;0.98;;;;;;;29.17;21.82;99602.75;4387715;32;34132;-81
2022/07/15 15:20:43;;;;;;;;;;;;;;;28.94;21.19;99613.66;4388148;32;34176;-81
2022/07/15 15:23:12;;;;;;;1.60;0.80;;;;;;;28.89;21.70;99599.06;4386169;32;34628;-78
2022/07/15 15:28:33;;;;;;;0.82;0.47;;;;;;;28.57;21.94;99607.31;4373740;32;35480;-79
2022/07/15 15:31:08;;;;;;;0.90;0.60;;;;;;;28.11;22.52;99614.03;4372943;32;33609;-79
2022/07/15 15:33:38;;;;;;;1.10;0.52;;;;;;;28.25;22.52;99609.16;4372950;32;34250;-79
2022/07/15 15:36:10;;;;;;;2.25;0.77;;;;;;;28.25;22.66;99597.66;4373678;32;33282;-80
2022/07/15 15:38:39;;;;;;;2.22;0.90;;;;;;;28.83;22.45;99602.28;4373514;32;33940;-79
2022/07/15 15:41:12;;;;;;;2.42;1.15;;;;;;;29.05;21.85;99601.16;4377370;32;33375;-81
2022/07/15 15:43:42;;;;;;;1.80;0.68;;;;;;;29.33;21.60;99600.34;4377085;32;34183;-81
2022/07/15 15:46:12;;;;;;;2.33;0.68;;;;;;;28.88;21.49;99605.37;4388360;32;34109;-81
2022/07/15 15:48:43;;;;;;;1.85;0.70;;;;;;;28.49;22.53;99598.16;4387101;32;35447;-80
2022/07/15 15:51:15;;;;;;;1.05;0.57;;;;;;;28.50;22.77;99593.66;4388765;32;32593;-80
2022/07/15 15:53:43;;;;;;;1.55;0.68;;;;;;;28.36;23.07;99608.19;4391994;32;33928;-80
2022/07/15 15:56:15;;;;;;;0.70;0.45;;;;;;;28.33;22.86;99603.16;4391457;32;33775;-79
2022/07/15 15:58:44;;;;;;;0.70;0.60;;;;;;;28.36;23.40;99607.38;4383892;32;33841;-79
2022/07/15 16:01:17;;;;;;;1.67;0.60;;;;;;;28.68;22.65;99602.69;4374834;32;33510;-80
2022/07/15 16:03:48;;;;;;;0.85;0.50;;;;;;;28.61;23.02;99598.03;4372108;32;33498;-80
2022/07/15 16:06:20;;;;;;;1.10;0.70;;;;;;;29.35;22.21;99597.50;4373419;32;34354;-79
2022/07/15 16:09:02;;;;;;;1.27;0.62;;;;;;;29.81;21.35;99593.19;4385289;32;34990;-80
2022/07/15 16:11:38;;;;;;;3.03;0.80;;;;;;;29.90;21.66;99605.69;4364546;32;33052;-78
2022/07/15 16:14:10;;;;;;;2.30;0.68;;;;;;;30.17;20.46;99594.19;4374115;32;33428;-80
2022/07/15 16:16:43;;;;;;;0.47;0.30;;;;;;;29.80;20.98;99596.87;4374224;32;34750;-79
2022/07/15 16:19:13;;;;;;;1.98;0.70;;;;;;;29.88;21.15;99593.47;4376468;32;34117;-80
2022/07/15 16:24:38;;;;;;;2.08;0.60;;;;;;;29.86;20.96;99598.13;4376240;32;34202;-80
2022/07/15 16:27:10;;;;;;;2.00;0.90;;;;;;;29.42;21.10;99598.63;4379098;32;33728;-79
2022/07/15 16:29:39;;;;;;;2.80;0.80;;;;;;;29.70;21.15;99594.25;4376233;32;34829;-79
2022/07/15 16:32:08;;;;;;;1.42;0.60;;;;;;;29.22;20.94;99589.81;4382363;32;33606;-79
2022/07/15 16:34:39;;;;;;;2.92;0.90;;;;;;;29.35;21.44;99595.69;4388820;32;33526;-79
2022/07/15 16:37:08;;;;;;;0.93;0.60;;;;;;;29.42;21.62;99592.44;4388801;32;34807;-80
2022/07/15 16:39:38;;;;;;;;;;;;;;;28.71;21.45;99601.59;4392049;32;33862;-79
2022/07/15 16:42:11;;;;;;;1.87;0.85;;;;;;;28.74;21.75;99595.13;4375082;32;34084;-79
2022/07/15 16:44:49;;;;;;;1.10;0.50;;;;;;;28.77;21.03;99593.00;4385287;32;33853;-80
2022/07/15 16:47:23;;;;;;;1.35;0.60;;;;;;;28.67;21.71;99597.50;4379685;32;34726;-78
2022/07/15 16:49:59;;;;;;;2.12;1.00;;;;;;;29.11;21.36;99604.13;4372951;32;34712;-79
2022/07/15 16:52:28;;;;;;;1.45;0.62;;;;;;;28.89;21.80;99594.53;4373676;32;34267;-78
2022/07/15 16:54:58;;;;;;;3.65;0.90;;;;;;;28.98;21.39;99594.72;4381089;32;33921;-79
2022/07/15 16:57:27;;;;;;;1.75;0.90;;;;;;;28.73;21.20;99591.59;4375224;32;33654;-79
2022/07/15 17:00:02;;;;;;;1.40;0.62;;;;;;;28.59;21.15;99606.19;4373509;32;34168;-79
2022/07/15 17:02:30;;;;;;;2.92;0.65;;;;;;;28.59;20.92;99594.69;4373801;32;33570;-79
2022/07/15 17:05:03;;;;;;;1.23;0.70;;;;;;;28.45;21.88;99599.41;4373358;32;33612;-78
2022/07/15 17:07:32;;;;;;;1.65;0.62;;;;;;;28.35;21.23;99598.53;4373652;32;34771;-78
2022/07/15 17:10:04;;;;;;;1.60;0.85;;;;;;;28.40;21.65;99608.78;4378478;32;33790;-78
2022/07/15 17:12:33;;;;;;;1.25;0.88;;;;;;;28.15;22.36;99610.09;4375837;32;33471;-78
2022/07/15 17:15:06;;;;;;;1.85;0.77;;;;;;;28.12;22.47;99613.03;4377198;32;34558;-79
2022/07/15 17:17:35;;;;;;;3.55;0.73;;;;;;;27.99;22.82;99616.78;4377475;32;34115;-78
2022/07/15 17:20:15;;;;;;;1.45;0.55;;;;;;;27.79;22.89;99621.16;4378394;32;33663;-79
2022/07/15 17:22:50;;;;;;;;;;;;;;;27.57;23.24;99619.47;4376757;32;33528;-79
2022/07/15 17:25:19;;;;;;;1.30;0.80;;;;;;;27.65;23.10;99614.34;4378761;32;34883;-79
2022/07/15 17:27:50;;;;;;;1.50;0.80;;;;;;;27.53;23.59;99623.38;4375582;32;33979;-79
2022/07/15 17:30:19;;;;;;;1.67;0.93;;;;;;;27.34;24.00;99620.59;4374101;32;34136;-81
2022/07/15 17:32:52;;;;;;;1.87;0.80;;;;;;;27.49;23.45;99623.75;4374802;32;34734;-80
2022/07/15 17:35:42;;;;;;;1.15;0.60;;;;;;;27.09;24.10;99616.44;4380679;32;34055;-80
2022/07/15 17:38:17;;;;;;;1.05;0.60;;;;;;;27.13;24.23;99616.03;4388758;32;36105;-80
2022/07/15 17:40:46;;;;;;;2.85;0.80;;;;;;;27.04;24.16;99627.47;4393251;32;34091;-79
2022/07/15 17:43:17;;;;;;;1.60;0.82;;;;;;;26.88;24.53;99622.56;4387781;32;33520;-78
2022/07/15 17:45:46;;;;;;;1.77;1.10;;;;;;;26.63;24.67;99631.72;4388500;32;32580;-78
2022/07/15 17:48:16;;;;;;;4.05;1.05;;;;;;;26.57;24.54;99626.87;4388728;32;33908;-79
2022/07/15 17:50:48;;;;;;;0.88;0.62;;;;;;;26.48;24.52;99631.09;4387855;32;33832;-80
2022/07/15 17:53:20;;;;;;;1.45;0.68;;;;;;;26.26;24.63;99631.94;4393659;32;32867;-80
2022/07/15 17:55:51;;;;;;;1.48;0.60;;;;;;;26.28;24.75;99635.34;4378913;32;33020;-79
2022/07/15 17:58:23;;;;;;;1.95;0.80;;;;;;;26.62;24.26;99630.00;4385765;32;35428;-80
2022/07/15 18:00:55;;;;;;;1.33;0.50;;;;;;;26.48;24.40;99630.22;4390193;32;34689;-78
2022/07/15 18:03:29;;;;;;;1.90;1.30;;;;;;;26.31;24.49;99631.59;4389974;32;33670;-80
2022/07/15 18:06:05;;;;;;;1.92;0.90;;;;;;;26.48;24.30;99640.88;4387708;32;34604;-80
2022/07/15 18:08:34;;;;;;;1.95;0.62;;;;;;;25.90;25.21;99647.19;4392559;32;34616;-80
2022/07/15 18:11:09;;;;;;;1.15;0.70;;;;;;;26.13;24.62;99647.19;4387053;32;34616;-78
2022/07/15 18:13:38;;;;;;;1.70;1.12;;;;;;;25.84;24.91;99650.28;4388529;32;33082;-80
2022/07/15 18:16:07;;;;;;;2.25;0.80;;;;;;;25.53;25.02;99647.31;4388710;32;33450;-78
2022/07/15 18:18:36;;;;;;;1.35;0.60;;;;;;;25.26;25.54;99652.91;4376595;32;34885;-80
2022/07/15 18:21:10;;;;;;;1.27;0.70;;;;;;;25.57;25.18;99645.28;4376607;32;34816;-79
2022/07/15 18:23:39;;;;;;;2.50;0.45;;;;;;;25.43;25.13;99653.44;4393216;32;33140;-79
2022/07/15 18:26:09;;;;;;;1.80;0.93;;;;;;;25.30;25.62;99654.38;4379990;32;34482;-80
2022/07/15 18:28:37;;;;;;;1.50;0.85;;;;;;;25.33;25.64;99650.63;4376489;32;34656;-79
2022/07/15 18:31:10;;;;;;;1.30;1.08;;;;;;;25.48;25.35;99649.47;4374721;32;33947;-79
2022/07/15 18:33:39;;;;;;;1.25;0.60;;;;;;;25.38;25.29;99656.44;4372851;32;33587;-78
2022/07/15 18:36:14;;;;;;;0.93;0.50;;;;;;;25.25;25.50;99653.00;4380629;32;33817;-78
2022/07/15 18:38:44;;;;;;;1.02;0.50;;;;;;;25.21;25.33;99655.06;4374704;32;33954;-79
2022/07/15 18:41:14;;;;;;;0.90;0.50;;;;;;;25.01;25.51;99659.16;4372464;32;34085;-79
2022/07/15 18:43:43;;;;;;;;;;;;;;;24.97;25.62;99665.66;4378984;32;33255;-80
2022/07/15 18:46:16;;;;;;;1.77;0.70;;;;;;;24.67;26.23;99666.09;4373832;32;33713;-79
2022/07/15 18:48:46;;;;;;;1.87;0.70;;;;;;;24.97;25.41;99664.81;4374810;32;33943;-79
2022/07/15 18:51:18;;;;;;;3.65;1.58;;;;;;;24.96;25.47;99671.94;4377025;32;33750;-80
2022/07/15 18:53:48;;;;;;;1.25;0.80;;;;;;;24.74;26.21;99669.12;4375733;32;33086;-81
2022/07/15 18:56:20;;;;;;;1.75;1.00;;;;;;;24.66;26.35;99673.19;4372345;32;33620;-80
2022/07/15 18:58:53;;;;;;;5.37;1.67;;;;;;;24.88;25.84;99672.47;4372921;32;33748;-80
2022/07/15 19:01:22;;;;;;;3.00;1.50;;;;;;;25.11;25.55;99681.41;4379321;32;34193;-78
2022/07/15 19:03:52;;;;;;;1.98;1.12;;;;;;;25.12;25.79;99684.91;4384632;32;33578;-79
2022/07/15 19:06:23;;;;;;;1.65;1.00;;;;;;;25.10;25.69;99685.03;4375370;32;34181;-79
2022/07/15 19:08:52;;;;;;;0.65;0.60;;;;;;;24.93;25.98;99688.06;4374694;32;34202;-80
2022/07/15 19:11:24;;;;;;;1.67;0.82;;;;;;;25.05;26.04;99691.62;4372424;32;34387;-80
2022/07/15 19:13:53;;;;;;;1.00;0.68;;;;;;;25.21;25.59;99696.69;4372645;32;33707;-79
2022/07/15 19:16:22;;;;;;;0.90;0.70;;;;;;;25.09;26.05;99690.44;4371762;32;33852;-79
2022/07/15 19:18:51;;;;;;;3.95;0.80;;;;;;;24.82;26.67;99694.16;4377265;32;33871;-79
2022/07/15 19:21:29;;;;;;;0.95;0.60;;;;;;;25.00;27.28;99694.59;4371520;32;34126;-80
2022/07/15 19:23:58;;;;;;;3.08;0.90;;;;;;;25.09;27.57;99691.28;4371533;32;33789;-79
2022/07/15 19:26:27;;;;;;;2.70;0.68;;;;;;;24.73;28.54;99704.59;4375329;32;33929;-78
2022/07/15 19:28:56;;;;;;;2.17;0.80;;;;;;;25.00;28.20;99707.88;4372252;32;34049;-79
2022/07/15 19:31:31;;;;;;;2.45;0.80;;;;;;;24.97;27.45;99709.94;4376453;32;34723;-82
2022/07/15 19:34:00;;;;;;;3.90;0.90;;;;;;;25.09;26.99;99707.22;4376943;32;34084;-78
2022/07/15 19:36:31;;;;;;;0.90;0.57;;;;;;;25.05;27.17;99705.72;4373823;32;34867;-79
2022/07/15 19:39:00;;;;;;;1.95;0.80;;;;;;;24.74;27.54;99700.97;4374788;32;34380;-79
2022/07/15 19:41:32;;;;;;;3.05;0.50;;;;;;;24.68;27.83;99705.75;4372493;32;33967;-78
2022/07/15 19:44:01;;;;;;;1.77;0.77;;;;;;;24.63;27.88;99709.69;4372671;32;34468;-78
2022/07/15 19:46:33;;;;;;;1.52;0.80;;;;;;;24.55;28.33;99698.78;4375544;32;34535;-78
2022/07/15 19:49:02;;;;;;;0.60;0.40;;;;;;;24.61;28.00;99698.34;4375153;32;33726;-79
2022/07/15 19:51:36;;;;;;;1.35;0.60;;;;;;;24.38;28.56;99700.81;4374367;32;34083;-78
2022/07/15 19:54:05;;;;;;;1.52;0.62;;;;;;;24.21;29.55;99704.63;4375959;32;32643;-79
2022/07/15 19:56:36;;;;;;;1.83;0.82;;;;;;;24.40;29.11;99713.94;4372438;32;34515;-78
2022/07/15 20:01:54;;;;;;;1.15;0.62;;;;;;;24.12;29.50;99718.53;4341623;33;33746;-79
2022/07/15 20:04:28;;;;;;;3.25;1.12;;;;;;;24.07;28.96;99720.66;4339631;33;33287;-78
2022/07/15 20:07:06;;;;;;;1.85;0.90;;;;;;;23.92;29.28;99717.25;4339354;33;33895;-78
2022/07/15 20:09:35;;;;;;;0.75;0.60;;;;;;;23.87;29.68;99716.69;4339414;33;34876;-79
2022/07/15 20:12:04;;;;;;;1.15;0.57;;;;;;;23.85;30.12;99718.63;4338538;33;33997;-78
2022/07/15 20:14:33;;;;;;;1.08;0.52;;;;;;;23.81;30.91;99709.16;4338783;33;33466;-80
2022/07/15 20:17:05;;;;;;;2.53;0.62;;;;;;;23.79;30.85;99717.22;4330427;33;33585;-79
2022/07/15 20:19:34;;;;;;;1.75;0.80;;;;;;;23.73;30.97;99720.28;4325576;33;33883;-79
2022/07/15 20:22:08;;;;;;;0.88;0.65;;;;;;;23.62;31.05;99728.06;4333960;33;34188;-79
2022/07/15 20:24:37;;;;;;;1.10;0.70;;;;;;;23.69;30.79;99726.69;4334948;33;33747;-80
2022/07/15 20:27:09;;;;;;;1.87;0.70;;;;;;;23.55;30.58;99729.41;4334855;33;33837;-78
2022/07/15 20:29:38;;;;;;;3.12;0.70;;;;;;;23.26;30.79;99729.53;4340693;33;33981;-80
2022/07/15 20:32:10;;;;;;;1.80;0.70;;;;;;;23.31;31.30;99739.81;4341300;33;35006;-79
2022/07/15 20:34:40;;;;;;;0.93;0.40;;;;;;;23.13;31.37;99742.72;4343386;33;34249;-80
2022/07/15 20:37:10;;;;;;;1.77;0.98;;;;;;;23.29;31.83;99734.63;4344291;32;34400;-79
2022/07/15 20:39:39;;;;;;;1.27;0.60;;;;;;;23.21;32.05;99747.50;4373342;32;35876;-79
2022/07/15 20:42:11;;;;;;;1.02;0.55;;;;;;;23.34;31.55;99737.84;4377504;32;34489;-78
2022/07/15 20:44:40;;;;;;;1.05;0.73;;;;;;;23.20;31.67;99743.19;4375965;32;33307;-80
2022/07/15 20:47:15;;;;;;;0.70;0.47;;;;;;;23.20;32.05;99748.47;4371848;32;33700;-79
2022/07/15 20:49:45;;;;;;;2.05;0.55;;;;;;;23.13;31.56;99745.38;4371024;32;34771;-80
2022/07/15 20:52:15;;;;;;;3.53;1.02;;;;;;;23.10;32.18;99742.94;4370779;32;33864;-78
2022/07/15 20:54:45;;;;;;;0.60;0.60;;;;;;;23.10;31.53;99745.56;4374562;32;33476;-79
2022/07/15 20:57:15;;;;;;;0.40;0.40;;;;;;;22.86;32.04;99742.66;4376346;32;33837;-82
2022/07/15 20:59:44;;;;;;;1.58;0.85;;;;;;;23.05;31.42;99747.66;4379220;32;34717;-81
2022/07/15 21:02:14;;;;;;;0.62;0.50;;;;;;;23.14;31.92;99748.84;4377584;32;34856;-79
2022/07/15 21:04:43;;;;;;;1.50;0.73;;;;;;;22.78;32.20;99751.09;4375752;32;33506;-79
2022/07/15 21:07:19;;;;;;;1.27;0.60;;;;;;;22.84;32.76;99744.53;4372793;32;33506;-79
2022/07/15 21:09:48;;;;;;;1.80;0.68;;;;;;;22.84;32.76;99752.47;4374919;32;34786;-78
2022/07/15 21:12:20;;;;;;;1.33;0.80;;;;;;;22.70;32.72;99758.63;4383841;32;34566;-78
2022/07/15 21:14:49;;;;;;;1.05;0.62;;;;;;;22.84;31.98;99757.78;4381987;32;33717;-79
2022/07/15 21:17:21;;;;;;;2.70;1.40;;;;;;;22.65;32.19;99759.88;4376890;32;34752;-79
2022/07/15 21:19:50;;;;;;;3.10;0.75;;;;;;;22.51;32.90;99760.72;4383917;32;34203;-78
2022/07/15 21:22:23;;;;;;;2.42;0.57;;;;;;;22.56;32.79;99756.00;4382805;32;32756;-78
2022/07/15 21:27:39;;;;;;;0.52;0.50;;;;;;;22.44;33.32;99760.22;4386851;32;33555;-78
2022/07/15 21:30:16;;;;;;;1.25;0.70;;;;;;;22.51;33.17;99764.19;4381001;32;34447;-79
2022/07/15 21:32:48;;;;;;;0.93;0.57;;;;;;;22.64;32.95;99763.44;4382588;32;34142;-79
2022/07/15 21:35:17;;;;;;;5.05;0.50;;;;;;;22.43;33.21;99763.84;4384765;32;33182;-79
2022/07/15 21:37:50;;;;;;;1.10;0.62;;;;;;;22.39;32.68;99769.41;4372899;32;34245;-78
2022/07/15 21:40:21;;;;;;;0.88;0.60;;;;;;;22.35;33.06;99768.75;4376013;32;33839;-78
2022/07/15 21:42:59;;;;;;;2.12;0.70;;;;;;;22.34;33.62;99770.53;4377175;32;33679;-79
2022/07/15 21:45:29;;;;;;;1.80;0.93;;;;;;;22.05;33.87;99774.88;4372822;32;33623;-80
2022/07/15 21:48:00;;;;;;;1.12;0.57;;;;;;;22.25;33.08;99778.16;4372498;32;34469;-79
2022/07/15 21:53:29;;;;;;;0.85;0.57;;;;;;;22.33;33.85;99781.19;4374238;32;34006;-79
2022/07/15 21:56:00;;;;;;;2.37;1.00;;;;;;;22.52;33.54;99792.34;4372452;32;32993;-79
2022/07/15 21:58:29;;;;;;;2.30;0.65;;;;;;;22.27;34.10;99784.19;4377306;32;33238;-80
2022/07/15 22:01:02;;;;;;;1.50;0.60;;;;;;;22.52;33.57;99787.06;4378528;32;34440;-79